WetterOnline ( https://www.wetteronline.de )

Wetter aktuell Mirow

Aktuelles Wetter: Waren (71m)

6-stündlich | Neueste Meldungen
Ortszeit Temperatur Wetter
Mi, 26.01. 19:00 2.6° C bedeckt
Mi, 26.01. 13:00 2.9° C bedeckt
Mi, 26.01. 7:00 3.4° C bedeckt
Mi, 26.01. 1:00 4.4° C bewölkt
Di, 25.01. 19:00 4.9° C bedeckt
Di, 25.01. 13:00 4.7° C bedeckt
Di, 25.01. 7:00 2.9° C Regen
Di, 25.01. 1:00 3.2° C bedeckt
Ortszeit Temperatur Wetter
Do, 27.01. 0:30 3.3° C bedeckt
Do, 27.01. 0:20 3.3° C Dunst
Do, 27.01. 0:10 3.2° C Dunst
Do, 27.01. 0:00 3.2° C bedeckt
Mi, 26.01. 23:50 3.2° C Dunst
Mi, 26.01. 23:40 3.1° C Sprühregen
Mi, 26.01. 23:30 3.1° C Sprühregen
Mi, 26.01. 23:00 2.9° C bedeckt
Mi, 26.01. 22:30 2.9° C bedeckt
Mi, 26.01. 22:00 2.7° C bedeckt
Mi, 26.01. 21:30 2.6° C bedeckt
Ortszeit Relative Feuchte Sichtweite
Mi, 26.01. 19:00 91% 7 km
Mi, 26.01. 13:00 90% 7 km
Mi, 26.01. 7:00 94% 6 km
Mi, 26.01. 1:00 95% 3.9 km
Di, 25.01. 19:00 95% 11 km
Di, 25.01. 13:00 94% 5.0 km
Di, 25.01. 7:00 93% 4.5 km
Di, 25.01. 1:00 86% 7 km
Ortszeit Relative Feuchte Sichtweite
Do, 27.01. 0:30 93% 4.2 km
Do, 27.01. 0:20 93% -
Do, 27.01. 0:10 93% -
Do, 27.01. 0:00 93% 4.6 km
Mi, 26.01. 23:50 93% -
Mi, 26.01. 23:40 93% -
Mi, 26.01. 23:30 94% 3.2 km
Mi, 26.01. 23:00 95% 3.2 km
Mi, 26.01. 22:30 94% 3.4 km
Mi, 26.01. 22:00 96% 2.9 km
Mi, 26.01. 21:30 96% 2.4 km
Ortszeit Niederschlagsmenge Niederschlagsart
Mi, 26.01. 19:00 0.1 l/m2 in 12 Std. Regen
Mi, 26.01. 13:00 0.1 l/m2 in 6 Std. Regen
Mi, 26.01. 7:00 0.2 l/m2 in 12 Std. Regen
Mi, 26.01. 1:00 0.1 l/m2 in 6 Std. Regen
Di, 25.01. 19:00 0.1 l/m2 in 12 Std. Regen
Di, 25.01. 13:00 0.1 l/m2 in 6 Std. Sprühregen
Di, 25.01. 7:00 0.1 l/m2 in 12 Std. Sprühregen
Di, 25.01. 1:00 0.1 l/m2 in 6 Std. Sprühregen
Ortszeit Niederschlagsmenge Niederschlagsart
Do, 27.01. 0:30 0.1 l/m2 in 1 Std. Schnee
Do, 27.01. 0:20 keine Meldung -
Do, 27.01. 0:10 keine Meldung -
Do, 27.01. 0:00 0.1 l/m2 in 1 Std. Sprühregen
Mi, 26.01. 23:50 keine Meldung -
Mi, 26.01. 23:40 keine Meldung -
Mi, 26.01. 23:30 0.1 l/m2 in 1 Std. -
Mi, 26.01. 23:00 0.1 l/m2 in 1 Std. Sprühregen
Mi, 26.01. 22:30 0.0 l/m2 in 1 Std. -
Mi, 26.01. 22:00 0.0 l/m2 in 1 Std. Regen
Mi, 26.01. 21:30 0.0 l/m2 in 1 Std. -
Ortszeit Stärke Spitze Richtung
km/h Bft. km/h Grad Sektor
Mi, 26.01. 19:00 20 4 39 270° W
Mi, 26.01. 13:00 15 3 30 250° W
Mi, 26.01. 7:00 15 3 30 270° W
Mi, 26.01. 1:00 14 3 25 280° W
Di, 25.01. 19:00 13 3 24 270° W
Di, 25.01. 13:00 13 3 24 280° W
Di, 25.01. 7:00 9 2 20 250° W
Di, 25.01. 1:00 11 2 22 250° W
Ortszeit Stärke Spitze Richtung
km/h Bft. km/h Grad Sektor
Do, 27.01. 0:30 17 3 31 230° SW
Do, 27.01. 0:20 17 3 - 230° SW
Do, 27.01. 0:10 18 3 - 230° SW
Do, 27.01. 0:00 18 3 32 240° SW
Mi, 26.01. 23:50 18 3 - 240° SW
Mi, 26.01. 23:40 14 3 - 250° W
Mi, 26.01. 23:30 17 3 28 240° SW
Mi, 26.01. 23:00 15 3 35 240° SW
Mi, 26.01. 22:30 19 3 35 250° W
Mi, 26.01. 22:00 18 3 36 240° SW
Mi, 26.01. 21:30 18 3 32 250° W
Ortszeit Untergrenze Bedeckung Gattung
total tief tief mittel hoch
Mi, 26.01. 19:00 180 m 8/8 8/8 - - -
Mi, 26.01. 13:00 300 m 8/8 8/8 - - -
Mi, 26.01. 7:00 180 m 8/8 8/8 - - -
Mi, 26.01. 1:00 150 m 7/8 7/8 - - -
Di, 25.01. 19:00 180 m 8/8 8/8 - - -
Di, 25.01. 13:00 150 m 8/8 8/8 - - -
Di, 25.01. 7:00 180 m 8/8 8/8 - - -
Di, 25.01. 1:00 480 m 8/8 8/8 - - -
Ortszeit Bedeckungsgrad in Achtel und Wolkenuntergrenze
Do, 27.01. 0:30 8(180m)
Do, 27.01. 0:20 8(180m)
Do, 27.01. 0:10 8
Do, 27.01. 0:00 8(180m)
Mi, 26.01. 23:50 8(180m)
Mi, 26.01. 23:40 8
Mi, 26.01. 23:30 8(150m)
Mi, 26.01. 23:00 8(120m)
Mi, 26.01. 22:30 8(120m)
Mi, 26.01. 22:00 8(90m)
Mi, 26.01. 21:30 8(90m)
Ortszeit Luftdruck NN (hPa) Tendenz (hPa in 3 Std.)
Mi, 26.01. 19:00 1024 - 0,4
Mi, 26.01. 13:00 1026 - 0,8
Mi, 26.01. 7:00 1027 - 0,9
Mi, 26.01. 1:00 1029 - 0,6
Di, 25.01. 19:00 1030 + 0,1
Di, 25.01. 13:00 1031 - 0,8
Di, 25.01. 7:00 1031 - 0,7
Di, 25.01. 1:00 1033 - 0,5
Ortszeit Luftdruck NN (hPa) Tendenz (hPa in 3 Std.)
Do, 27.01. 0:30 1021 - 2,0
Do, 27.01. 0:20 1021 keine Meldung
Do, 27.01. 0:10 1021 keine Meldung
Do, 27.01. 0:00 1022 - 1,5
Mi, 26.01. 23:50 1022 keine Meldung
Mi, 26.01. 23:40 1022 keine Meldung
Mi, 26.01. 23:30 1022 - 1,1
Mi, 26.01. 23:00 1022 - 0,9
Mi, 26.01. 22:30 1023 - 1,0
Mi, 26.01. 22:00 1023 - 0,9
Mi, 26.01. 21:30 1023 - 0,5
Ortszeit Schneehöhe (cm)
Mi, 26.01. 19:00 0
Mi, 26.01. 13:00 0
Mi, 26.01. 7:00 0
Mi, 26.01. 1:00 0
Di, 25.01. 19:00 0
Di, 25.01. 13:00 0
Di, 25.01. 7:00 0
Di, 25.01. 1:00 0
Ortszeit Schneehöhe (cm)
Do, 27.01. 0:30 0
Do, 27.01. 0:20 0
Do, 27.01. 0:10 0
Do, 27.01. 0:00 0
Mi, 26.01. 23:50 0
Mi, 26.01. 23:40 0
Mi, 26.01. 23:30 0
Mi, 26.01. 23:00 0
Mi, 26.01. 22:30 0
Mi, 26.01. 22:00 0
Mi, 26.01. 21:30 0
Link zu dieser Seite / Seite empfehlen

Das Wetter in ...